Norris Rancho Marino Reserve, California Weather observations

Data are for 10 minute period ending at time listed.
 Day   Time   Solar   Ave.   Ave.  Ave.  Vector  Max.   Baro.   Total    
  of    of     Rad.   Air    Rel.  Wind   Wind   Wind  Press.  Precip.   
Year   Day            Temp.  Hum.  Speed  Dir.   Gust                    
2014   (PST)  Kw/m2    F      %     mph   deg.    mph    mb.     in.     
-------------------------------------------------------------------------
 264   15:20   0.49   66.1    80   10.8   292    13.8   1011.6    0.00 
 264   15:30   0.46   66.2    79   10.0   292    12.9   1011.5    0.00 
 264   15:40   0.43   65.9    80   10.0   291    13.1   1011.5    0.00 
 264   15:50   0.40   66.2    80    9.3   292    12.9   1011.4    0.00 
 264   16:00   0.37   65.9    80   10.3   290    13.9   1011.3    0.00 
 264   16:10   0.34   65.6    81   10.3   291    14.2   1011.2    0.00 
 264   16:20   0.31   65.6    81   10.2   293    13.9   1011.2    0.00 
 264   16:30   0.27   65.2    82   11.2   294    14.4   1011.2    0.00 
 264   16:40   0.24   64.8    83   11.6   294    15.2   1011.2    0.00 
 264   16:50   0.21   64.4    84   12.3   294    14.7   1011.3    0.00 
 264   17:00   0.18   64.4    84   11.2   294    14.2   1011.4    0.00 
 264   17:10   0.14   64.0    85   11.2   295    14.3   1011.6    0.00 
 264   17:20   0.11   63.6    86   11.7   295    14.7   1011.6    0.00 
 264   17:30   0.09   63.4    87   10.2   298    13.2   1011.8    0.00 
 264   17:40   0.06   63.2    87    9.3   301    12.4   1012.0    0.00 
 264   17:50   0.03   62.9    88    9.8   303    14.8   1012.0    0.00 
 264   18:00   0.01   62.5    89    8.6   306    13.3   1012.1    0.00 
 264   18:10   0.01   62.1    90    8.7   306    12.0   1012.2    0.00 
 264   18:20   0.00   61.8    91    8.4   310    12.5   1012.3    0.00 
 264   18:30   0.00   61.5    92    7.5   311    10.8   1012.3    0.00 
 264   18:40   0.00   61.4    92    7.4   311    10.9   1012.4    0.00 
 264   18:50   0.00   61.4    92    6.8   310     9.8   1012.4    0.00 
 264   19:00   0.00   61.2    92    6.4   312     9.6   1012.4    0.00 
 264   19:10   0.00   61.4    92    7.3   316    10.3   1012.5    0.00 
 264   19:20   0.00   61.4    92    7.3   317    11.0   1012.5    0.00 
 264   19:30   0.00   61.3    91    5.9   315     8.0   1012.5    0.00 
 264   19:40   0.00   61.2    91    5.0   310     8.3   1012.6    0.00 
 264   19:50   0.00   61.1    91    5.2   310     8.4   1012.5    0.00 
 264   20:00   0.00   61.1    92    4.5   318     9.1   1012.6    0.00 
 264   20:10   0.00   61.1    91    4.4   321     6.4   1012.7    0.00 
 264   20:20   0.00   61.0    91    3.6   317     5.0   1012.8    0.00 
 264   20:30   0.00   61.0    91    4.2   320     6.3   1012.8    0.00 
 264   20:40   0.00   61.0    91    3.5   320     5.3   1012.8    0.00 
 264   20:50   0.00   60.8    91    3.2   328     6.4   1012.8    0.00 
 264   21:00   0.00   60.7    92    3.8   336     6.1   1012.8    0.00 
 264   21:10   0.00   60.0    92    3.5    27     5.1   1012.7    0.00 
 264   21:20   0.00   59.7    92    3.1    22     4.5   1012.7    0.00 
 264   21:30   0.00   59.2    92    3.2    36     4.2   1012.6    0.00 
 264   21:40   0.00   59.3    92    2.3    64     3.7   1012.7    0.00 
 264   21:50   0.00   59.2    92    2.5    93     3.6   1012.7    0.00 
 264   22:00   0.00   58.8    92    1.9    68     2.7   1012.7    0.00 
 264   22:10   0.00   58.8    92    1.8    64     3.1   1012.7    0.00 
 264   22:20   0.00   58.7    93    1.4    99     2.7   1012.6    0.00 
 264   22:30   0.00   58.8    93    0.8    64     2.3   1012.6    0.00 
 264   22:40   0.00   58.7    93    1.5    41     2.6   1012.6    0.00 
 264   22:50   0.00   58.5    93    1.5    33     2.4   1012.6    0.00 
 264   23:00   0.00   58.5    93    2.0    10     2.9   1012.7    0.00 
 264   23:10   0.00   58.4    93    2.3    33     4.3   1012.8    0.00 
 264   23:20   0.00   57.8    93    4.6    39     5.3   1012.8    0.00 
 264   23:30   0.00   58.1    93    4.9    38     5.9   1012.7    0.00 
 264   23:40   0.00   58.4    93    3.3    46     4.8   1012.6    0.00 
 264   23:50   0.00   58.5    93    1.2    43     3.3   1012.6    0.00 
 265    0:00   0.00   58.4    93    2.8    71     3.9   1012.6    0.00 
 265    0:10   0.00   58.4    94    2.3    83     3.4   1012.5    0.00 
 265    0:20   0.00   58.6    94    2.3    91     3.4   1012.5    0.00 
 265    0:30   0.00   58.5    94    2.2    69     3.0   1012.5    0.00 
 265    0:40   0.00   58.4    94    1.6    68     3.0   1012.4    0.00 
 265    0:50   0.00   58.5    94    1.8    54     2.7   1012.3    0.00 
 265    1:00   0.00   58.4    94    1.9    49     3.1   1012.3    0.00 
 265    1:10   0.00   58.1    94    1.8    32     3.0   1012.3    0.00 
 265    1:20   0.00   57.8    94    2.5    38     3.4   1012.2    0.00 
 265    1:30   0.00   57.4    94    2.1    22     3.4   1012.1    0.00 
 265    1:40   0.00   57.4    94    1.5    44     4.1   1012.0    0.00 
 265    1:50   0.00   57.3    94    2.5    65     3.5   1012.0    0.00 
 265    2:00   0.00   57.5    94    1.9    57     3.4   1012.0    0.00 
 265    2:10   0.00   57.3    94    2.5    60     3.7   1011.9    0.00 
 265    2:20   0.00   57.5    94    3.0    40     3.6   1011.8    0.00 
 265    2:30   0.00   57.6    95    2.4    48     4.1   1011.7    0.00 
 265    2:40   0.00   57.8    95    1.5    30     2.8   1011.8    0.00 
 265    2:50   0.00   57.5    95    2.3    35     3.4   1011.8    0.00 
 265    3:00   0.00   57.8    95    1.8     2     2.9   1011.9    0.00 
 265    3:10   0.00   58.1    95    3.1   345     5.8   1011.9    0.00 
 265    3:20   0.00   58.8    95    4.5   359     6.6   1011.9    0.00 
 265    3:30   0.00   59.4    94    5.8   344     8.7   1011.9    0.00 
 265    3:40   0.00   60.0    94    5.8   340     8.4   1011.8    0.00 
 265    3:50   0.00   60.3    93    5.8   332     8.8   1011.8    0.00 
 265    4:00   0.00   60.6    93    6.4   325     8.8   1011.8    0.00 
 265    4:10   0.00   60.8    92    5.8   329     9.6   1011.8    0.00 
 265    4:20   0.00   61.0    92    5.5   328     8.7   1011.9    0.00 
 265    4:30   0.00   61.1    93    4.8   321     7.4   1012.1    0.00 
 265    4:40   0.00   61.2    93    6.7   320    10.7   1012.1    0.00 
 265    4:50   0.00   61.2    93    5.8   323     8.9   1012.1    0.00 
 265    5:00   0.00   61.2    93    5.4   322     7.5   1012.1    0.00 
 265    5:10   0.00   61.2    94    5.1   318     8.0   1012.1    0.00 
 265    5:20   0.00   61.0    94    3.5   337     6.4   1012.1    0.00 
 265    5:30   0.00   60.9    94    2.1   324     3.4   1012.1    0.00 
 265    5:40   0.00   60.7    94    1.9   338     3.5   1012.2    0.00 
 265    5:50   0.00   60.6    94    1.6   325     2.8   1012.2    0.00 
 265    6:00   0.01   60.5    95    0.5   359     1.2   1012.2    0.00 
 265    6:10   0.01   60.6    95    2.2   332     4.4   1012.3    0.00 
 265    6:20   0.01   60.5    95    2.4   309     4.2   1012.3    0.00 
 265    6:30   0.02   60.5    95    0.7   281     2.9   1012.4    0.00 
 265    6:40   0.04   60.7    95    0.6   148     2.2   1012.4    0.00 
 265    6:50   0.07   60.6    95    0.8    55     2.1   1012.5    0.00 
 265    7:00   0.12   60.7    95    0.3   359     1.8   1012.5    0.00 
 265    7:10   0.17   61.1    95    1.9   237     3.4   1012.6    0.00 
 265    7:20   0.11   60.8    95    1.8   248     2.8   1012.7    0.00 
 265    7:30   0.14   60.8    95    2.5   261     3.5   1012.7    0.00 
 265    7:40   0.10   60.4    95    3.0   252     3.8   1012.8    0.00 
 265    7:50   0.09   60.1    96    3.2   238     4.2   1013.0    0.00 
 265    8:00   0.13   60.1    96    2.5   204     4.0   1013.2    0.00 
 265    8:10   0.12   59.9    96    3.6   259     6.2   1013.4    0.00 
 265    8:20   0.24   60.1    96    2.5     4     5.0   1013.4    0.00 
 265    8:30   0.42   61.7    96    2.1    22     4.2   1013.5    0.00 
 265    8:40   0.45   61.7    95    4.5   248     5.8   1013.6    0.00 
 265    8:50   0.48   62.0    93    3.5   252     5.1   1013.4    0.00 
 265    9:00   0.51   62.9    89    3.4   260     6.4   1013.4    0.00 
 265    9:10   0.53   62.9    89    3.9   270     6.4   1013.4    0.00 
 265    9:20   0.56   64.1    85    3.9   260     6.6   1013.4    0.00 
 265    9:30   0.58   63.8    85    4.0   250     6.5   1013.2    0.00 
 265    9:40   0.61   62.7    88    4.1   247     6.1   1013.2    0.00 
 265    9:50   0.63   64.5    85    3.5   268     6.1   1013.2    0.00 
 265   10:00   0.65   64.8    83    4.5   271     7.5   1013.0    0.00 
 265   10:10   0.67   65.2    83    5.3   278     7.6   1013.0    0.00 
 265   10:20   0.69   65.1    82    6.0   282     7.7   1013.1    0.00 
 265   10:30   0.71   64.9    83    6.3   284     8.3   1013.0    0.00 
 265   10:40   0.73   65.4    82    9.0   287    13.1   1013.0    0.00 
 265   10:50   0.74   65.5    81   10.8   289    13.8   1013.0    0.00 
 265   11:00   0.75   65.8    80   10.8   290    14.0   1012.9    0.00 
 265   11:10   0.77   65.5    81   10.5   289    12.9   1012.8    0.00 
 265   11:20   0.78   65.9    81   10.2   292    14.0   1013.0    0.00 
 265   11:30   0.79   66.0    80   11.9   292    15.9   1013.0    0.00 
 265   11:40   0.79   65.7    81   11.6   292    15.5   1012.9    0.00 
 265   11:50   0.79   66.2    80   12.2   293    16.2   1012.9    0.00 
 265   12:00   0.80   66.5    79   11.7   292    16.4   1012.7    0.00 
 265   12:10   0.80   66.8    78   12.4   295    18.1   1012.6    0.00 
 265   12:20   0.79   66.6    78   11.5   294    16.7   1012.4    0.00 
 265   12:30   0.79   66.4    79   10.7   288    15.6   1012.2    0.00 
 265   12:40   0.79   65.9    80   10.9   289    16.3   1012.1    0.00 
 265   12:50   0.78   65.9    80   10.6   290    13.9   1012.1    0.00 
 265   13:00   0.78   65.6    81   11.2   291    15.3   1012.1    0.00 
 265   13:10   0.76   65.9    81   12.7   293    16.0   1012.0    0.00 
 265   13:20   0.75   65.9    81   11.6   290    16.1   1011.8    0.00 
 265   13:30   0.74   66.4    80   11.9   290    16.5   1011.5    0.00 
 265   13:40   0.72   66.1    80   12.7   293    16.2   1011.4    0.00 
 265   13:50   0.71   66.3    80   11.9   292    15.6   1011.3    0.00 
 265   14:00   0.69   66.1    80   11.6   288    15.1   1011.2    0.00 
 265   14:10   0.67   65.9    80   11.0   287    15.6   1011.1    0.00 
 265   14:20   0.65   66.1    79   10.2   290    14.6   1011.1    0.00 
 265   14:30   0.59   66.3    79    9.8   292    14.8   1011.0    0.00 
 265   14:40   0.60   65.8    79   10.3   288    13.5   1010.9    0.00 
 265   14:50   0.58   65.7    80   10.2   296    13.1   1010.8    0.00 
 265   15:00   0.55   65.8    79   10.4   291    14.8   1010.7    0.00 
 265   15:10   0.53   65.9    79   10.7   299    14.8   1010.6    0.00 

Return to Norris Rancho Marino Reserve graphs page.


Western Regional Climate Center,wrcc@dri.edu